This is the latest recevied weather packets stored in our database for station/object OK1HOL-13. If no packets are shown the sender has not sent any weather packets the latest 10 day(s).
| Time | Temp. | Humidity | Pressure | Rain* | Wind** | Luminosity | Snow |
|---|---|---|---|---|---|---|---|
| 1778012161 | 19.44° C | 51% | 1004.3 hPa | - | - | 0 W/m² | - |
| 1778011561 | 18.89° C | 53% | 1004.2 hPa | - | - | 0 W/m² | - |
| 1778010961 | 19.44° C | 52% | 1003.7 hPa | - | - | 0 W/m² | - |
| 1778010361 | 18.89° C | 53% | 1003.5 hPa | - | - | 0 W/m² | - |
| 1778009761 | 19.44° C | 53% | 1003.3 hPa | - | - | 0 W/m² | - |
| 1778009161 | 19.44° C | 52% | 1003.3 hPa | - | - | 0 W/m² | - |
| 1778008561 | 19.44° C | 52% | 1003.3 hPa | - | - | 0 W/m² | - |
| 1778007961 | 19.44° C | 50% | 1003.5 hPa | - | - | 0 W/m² | - |
| 1778007361 | 20° C | 49% | 1003.6 hPa | - | - | 0 W/m² | - |
| 1778006761 | 20° C | 46% | 1003.7 hPa | - | - | 0 W/m² | - |
| 1778006161 | 20° C | 45% | 1003.6 hPa | - | - | 0 W/m² | - |
| 1778005561 | 20° C | 47% | 1003.4 hPa | - | - | 0 W/m² | - |
| 1778004961 | 20° C | 47% | 1003.4 hPa | - | - | 1 W/m² | - |
| 1778004361 | 20.56° C | 46% | 1003.4 hPa | - | - | 3 W/m² | - |
| 1778003761 | 20.56° C | 45% | 1003.6 hPa | - | - | 6 W/m² | - |
| 1778003161 | 20.56° C | 45% | 1003.8 hPa | - | - | 9 W/m² | - |
| 1778002561 | 21.11° C | 43% | 1004 hPa | - | - | 13 W/m² | - |
| 1778001961 | 21.11° C | 43% | 1004 hPa | - | - | 15 W/m² | - |
| 1778001361 | 21.67° C | 43% | 1004.1 hPa | - | - | 20 W/m² | - |
| 1778000761 | 21.67° C | 43% | 1004.2 hPa | - | - | 18 W/m² | - |
| 1778000161 | 21.11° C | 44% | 1004.3 hPa | - | - | 17 W/m² | - |
| 1777999561 | 22.22° C | 42% | 1004.3 hPa | - | - | 13 W/m² | - |
| 1777998961 | 22.78° C | 39% | 1004.2 hPa | - | - | 13 W/m² | - |
| 1777998361 | 25° C | 30% | 1003.9 hPa | - | - | 12 W/m² | - |
| 1777997761 | 25.56° C | 29% | 1003.7 hPa | - | - | 35 W/m² | - |
* Rain since midnight (hover to see other rain measurements)
** Current wind speed in m/s (hover to see current wind gust speed)